createdAt,value
2022-12-13T00:12:35.000Z,966.9
2022-12-13T00:42:39.000Z,966.8
2022-12-13T01:12:45.000Z,966.6
2022-12-13T01:42:47.000Z,966.4
2022-12-13T02:12:50.000Z,966.1
2022-12-13T02:42:59.000Z,966.0
2022-12-13T03:13:01.000Z,965.8
2022-12-13T03:43:07.000Z,965.8
2022-12-13T04:13:12.000Z,965.6
2022-12-13T04:43:17.000Z,965.6
2022-12-13T05:13:21.000Z,965.5
2022-12-13T05:43:26.000Z,965.2
2022-12-13T05:43:37.000Z,965.2
2022-12-13T06:13:49.000Z,965.1
2022-12-13T06:43:52.993Z,965.4
2022-12-13T07:14:02.000Z,965.5
2022-12-13T07:44:04.000Z,965.8
2022-12-13T08:14:15.694Z,965.8
2022-12-13T08:44:17.674Z,965.9
2022-12-13T09:14:19.000Z,965.7
2022-12-13T09:44:24.558Z,965.9
2022-12-13T10:14:28.609Z,965.7
2022-12-13T10:44:38.397Z,965.5
2022-12-13T11:14:43.432Z,965.1
2022-12-13T11:44:46.434Z,964.9
2022-12-13T12:14:48.353Z,964.7
2022-12-13T12:44:51.389Z,964.5
2022-12-13T13:14:55.268Z,964.1
2022-12-13T13:44:56.264Z,964.2
2022-12-13T14:14:57.247Z,964.1
2022-12-13T14:45:04.189Z,963.9
2022-12-13T15:15:11.208Z,963.8
2022-12-13T15:45:16.088Z,963.6
2022-12-13T16:15:22.120Z,963.3
2022-12-13T16:45:30.000Z,963.4
2022-12-13T16:45:41.014Z,963.4
2022-12-13T17:15:46.000Z,963.2
2022-12-13T17:45:52.000Z,963.0
2022-12-13T18:15:56.000Z,963.1
2022-12-13T18:45:59.000Z,963.0
2022-12-13T19:16:06.248Z,962.6
2022-12-13T19:46:08.000Z,962.2
2022-12-13T20:16:14.000Z,962.0
2022-12-13T20:46:20.000Z,961.9
2022-12-13T21:16:25.000Z,961.7
2022-12-13T21:46:26.069Z,961.5
2022-12-13T22:16:30.028Z,961.3
2022-12-13T22:46:37.026Z,960.9
2022-12-13T23:16:46.015Z,960.8
2022-12-13T23:46:52.920Z,960.5
